Time;durP1;ratioP1;P1;durP2;ratioP2;P2;SDS_P1;SDS_P2;PMS_P1;PMS_P2;Temp;Humidity;BMP_temperature;BMP_pressure;BME280_temperature;BME280_humidity;BME280_pressure;Samples;Min_cycle;Max_cycle;Signal;HPM_P1;HPM_P2
2022/08/22 00:00:45;;;;;;;8.63;1.90;;;;;;;-144.43;100.00;67396.00;5072916;28;20132;-63
2022/08/22 00:04:35;;;;;;;9.25;2.22;;;;;;;-144.43;100.00;67396.00;5072628;28;20514;-61
2022/08/22 00:08:34;;;;;;;8.60;2.10;;;;;;;-144.43;100.00;67396.00;5072765;28;20040;-62
2022/08/22 00:12:11;;;;;;;8.60;1.98;;;;;;;-144.43;100.00;67396.00;5072717;28;20127;-62
2022/08/22 00:15:49;;;;;;;6.47;1.70;;;;;;;-144.43;100.00;67396.00;5072743;28;20507;-62
2022/08/22 00:19:38;;;;;;;5.50;1.73;;;;;;;-144.43;100.00;67396.00;5072592;28;20037;-60
2022/08/22 00:23:10;;;;;;;5.43;1.67;;;;;;;-144.43;100.00;67396.00;5064943;28;20045;-60
2022/08/22 00:26:44;;;;;;;7.30;1.90;;;;;;;-144.43;100.00;67396.00;5072717;28;20038;-61
2022/08/22 00:30:17;;;;;;;14.57;2.42;;;;;;;-144.43;100.00;67396.00;5072480;28;20423;-61
2022/08/22 00:34:04;;;;;;;5.95;1.70;;;;;;;-144.43;100.00;67396.00;5072430;28;20039;-62
2022/08/22 00:37:51;;;;;;;7.40;1.58;;;;;;;-144.43;100.00;67396.00;5072522;28;20029;-62
2022/08/22 00:42:07;;;;;;;8.98;1.67;;;;;;;-144.43;100.00;67396.00;5072371;28;20037;-62
2022/08/22 00:46:01;;;;;;;8.77;2.00;;;;;;;-144.43;100.00;67396.00;5072283;28;20036;-62
2022/08/22 00:50:04;;;;;;;7.20;1.60;;;;;;;-144.43;100.00;67396.00;5075914;28;20479;-62
2022/08/22 00:54:03;;;;;;;7.63;1.90;;;;;;;-144.43;100.00;67396.00;5075849;28;20512;-61
2022/08/22 00:58:12;;;;;;;7.28;2.30;;;;;;;-144.43;100.00;67396.00;5075875;28;20123;-63
2022/08/22 01:01:50;;;;;;;7.05;1.90;;;;;;;-144.43;100.00;67396.00;5075800;28;20040;-62
2022/08/22 01:05:27;;;;;;;7.10;1.50;;;;;;;-144.43;100.00;67396.00;5075713;28;20048;-61
2022/08/22 01:08:55;;;;;;;7.30;1.58;;;;;;;-144.43;100.00;67396.00;5075538;28;20394;-62
2022/08/22 01:12:52;;;;;;;9.82;1.77;;;;;;;-144.43;100.00;67396.00;5075869;28;20040;-62
2022/08/22 01:16:20;;;;;;;10.15;1.95;;;;;;;-144.43;100.00;67396.00;5075751;28;20032;-61
2022/08/22 01:20:10;;;;;;;6.57;1.80;;;;;;;-144.43;100.00;67396.00;5075403;28;20028;-62
2022/08/22 01:24:12;;;;;;;10.90;1.80;;;;;;;-144.43;100.00;67396.00;5088886;28;20036;-62
2022/08/22 01:28:01;;;;;;;13.65;1.95;;;;;;;-144.43;100.00;67396.00;5077810;28;20040;-60
2022/08/22 01:31:45;;;;;;;10.82;2.00;;;;;;;-144.43;100.00;67396.00;5094394;28;20028;-63
2022/08/22 01:35:50;;;;;;;7.13;1.63;;;;;;;-144.43;100.00;67396.00;5094091;28;20121;-63
2022/08/22 01:39:49;;;;;;;10.93;2.10;;;;;;;-144.43;100.00;67396.00;5092114;28;20048;-62
2022/08/22 01:43:32;;;;;;;6.80;1.80;;;;;;;-144.43;100.00;67396.00;5092979;28;20039;-64
2022/08/22 01:47:16;;;;;;;11.77;1.90;;;;;;;-144.43;100.00;67396.00;5092597;28;20142;-66
2022/08/22 01:51:08;;;;;;;9.13;2.00;;;;;;;-144.43;100.00;67396.00;5094289;28;20039;-63
2022/08/22 01:54:41;;;;;;;7.78;2.05;;;;;;;-144.43;100.00;67396.00;5091396;28;20047;-63
2022/08/22 01:58:19;;;;;;;6.70;2.00;;;;;;;-144.43;100.00;67396.00;5094529;28;20062;-64
2022/08/22 02:01:58;;;;;;;11.02;2.33;;;;;;;-144.43;100.00;67396.00;5092867;28;20477;-62
2022/08/22 02:05:49;;;;;;;8.90;2.03;;;;;;;-144.43;100.00;67396.00;5091522;28;20482;-61
2022/08/22 02:09:36;;;;;;;7.20;2.30;;;;;;;-144.43;100.00;67396.00;5092577;28;20055;-63
2022/08/22 02:13:38;;;;;;;8.55;2.00;;;;;;;-144.43;100.00;67396.00;5091885;28;20085;-63
2022/08/22 02:17:17;;;;;;;8.52;2.30;;;;;;;-144.43;100.00;67396.00;5092019;28;20032;-61
2022/08/22 02:21:11;;;;;;;9.57;2.00;;;;;;;-144.43;100.00;67396.00;5092081;28;20028;-63
2022/08/22 02:25:03;;;;;;;9.40;2.25;;;;;;;-144.43;100.00;67396.00;5093541;28;20062;-64
2022/08/22 02:29:05;;;;;;;7.18;2.15;;;;;;;-144.43;100.00;67396.00;5088355;28;20390;-63
2022/08/22 02:32:33;;;;;;;8.75;2.20;;;;;;;-144.43;100.00;67396.00;5092034;28;20028;-61
2022/08/22 02:36:15;;;;;;;12.32;2.40;;;;;;;-144.43;100.00;67396.00;5090952;28;20491;-63
2022/08/22 02:40:07;;;;;;;10.85;2.38;;;;;;;-144.43;100.00;67396.00;5090987;28;20501;-62
2022/08/22 02:43:44;;;;;;;14.60;2.40;;;;;;;-144.43;100.00;67396.00;5089588;28;20105;-64
2022/08/22 02:47:31;;;;;;;9.45;2.50;;;;;;;-144.43;100.00;67396.00;5092894;28;20525;-63
2022/08/22 02:51:20;;;;;;;8.35;2.10;;;;;;;-144.43;100.00;67396.00;5092747;28;20036;-63
2022/08/22 02:55:01;;;;;;;13.45;2.42;;;;;;;-144.43;100.00;67396.00;5090806;28;20024;-63
2022/08/22 02:58:27;;;;;;;11.52;2.20;;;;;;;-144.43;100.00;67396.00;5090831;28;20119;-61
2022/08/22 03:01:56;;;;;;;10.93;2.20;;;;;;;-144.43;100.00;67396.00;5092532;28;20048;-62
2022/08/22 03:05:23;;;;;;;7.38;2.60;;;;;;;-144.43;100.00;67396.00;5092037;28;20093;-63
2022/08/22 03:09:02;;;;;;;11.18;2.72;;;;;;;-144.43;100.00;67396.00;5092148;28;20028;-62
2022/08/22 03:12:39;;;;;;;13.93;2.42;;;;;;;-144.43;100.00;67396.00;5092362;28;20043;-63
2022/08/22 03:17:01;;;;;;;8.48;2.35;;;;;;;-144.43;100.00;67396.00;5090272;28;20565;-60
2022/08/22 03:20:48;;;;;;;9.68;2.70;;;;;;;-144.43;100.00;67396.00;5043551;28;20048;-62
2022/08/22 03:24:29;;;;;;;13.10;2.40;;;;;;;-144.43;100.00;67396.00;5089634;28;20478;-60
2022/08/22 03:27:57;;;;;;;10.93;2.90;;;;;;;-144.43;100.00;67396.00;5090359;28;20024;-62
2022/08/22 03:31:38;;;;;;;10.82;2.63;;;;;;;-144.43;100.00;67396.00;5076016;28;20067;-61
2022/08/22 03:35:23;;;;;;;14.10;2.70;;;;;;;-144.43;100.00;67396.00;5091972;28;20090;-63
2022/08/22 03:38:52;;;;;;;14.02;3.03;;;;;;;-144.43;100.00;67396.00;5076916;28;20048;-62
2022/08/22 03:42:52;;;;;;;13.07;2.70;;;;;;;-144.43;100.00;67396.00;5092356;28;20060;-64
2022/08/22 03:46:38;;;;;;;10.48;2.42;;;;;;;-144.43;100.00;67396.00;5092543;28;20124;-63
2022/08/22 03:50:29;;;;;;;14.43;2.67;;;;;;;-144.43;100.00;67396.00;5092344;28;20059;-65
2022/08/22 03:54:10;;;;;;;9.93;2.70;;;;;;;-144.43;100.00;67396.00;5092154;28;20032;-66
2022/08/22 03:58:13;;;;;;;13.45;3.00;;;;;;;-144.43;100.00;67396.00;5091360;28;20061;-64
2022/08/22 04:02:00;;;;;;;12.65;2.70;;;;;;;-144.43;100.00;67396.00;5024006;28;20034;-60
2022/08/22 04:05:43;;;;;;;13.15;2.75;;;;;;;-144.43;100.00;67396.00;5089080;28;20456;-62
2022/08/22 04:09:52;;;;;;;15.00;3.05;;;;;;;-144.43;100.00;67396.00;5090274;28;20035;-64
2022/08/22 04:13:53;;;;;;;12.38;3.00;;;;;;;-144.43;100.00;67396.00;5091154;28;20111;-63
2022/08/22 04:17:46;;;;;;;9.63;2.65;;;;;;;-144.43;100.00;67396.00;5088417;28;20514;-63
2022/08/22 04:21:34;;;;;;;9.77;2.70;;;;;;;-144.43;100.00;67396.00;5089400;28;20048;-65
2022/08/22 04:25:14;;;;;;;7.78;2.40;;;;;;;-144.43;100.00;67396.00;5092619;28;20054;-61
2022/08/22 04:28:55;;;;;;;16.42;2.50;;;;;;;-144.43;100.00;67396.00;5090218;28;20032;-63
2022/08/22 04:32:30;;;;;;;7.28;2.72;;;;;;;-144.43;100.00;67396.00;5084002;28;20041;-62
2022/08/22 04:36:04;;;;;;;17.38;3.35;;;;;;;-144.43;100.00;67396.00;5094934;28;20127;-61
2022/08/22 04:39:54;;;;;;;8.57;2.45;;;;;;;-144.43;100.00;67396.00;5094017;28;20115;-63
2022/08/22 04:43:29;;;;;;;12.38;2.70;;;;;;;-144.43;100.00;67396.00;5077347;28;20089;-60
2022/08/22 04:47:01;;;;;;;7.65;2.42;;;;;;;-144.43;100.00;67396.00;5077682;28;20040;-60
2022/08/22 04:50:35;;;;;;;9.38;2.80;;;;;;;-144.43;100.00;67396.00;5094325;28;20042;-62
2022/08/22 04:54:34;;;;;;;9.35;2.88;;;;;;;-144.43;100.00;67396.00;5094727;28;20116;-62
2022/08/22 04:58:36;;;;;;;11.48;2.85;;;;;;;-144.43;100.00;67396.00;5094380;28;20043;-61
2022/08/22 05:02:08;;;;;;;9.85;2.80;;;;;;;-144.43;100.00;67396.00;5086396;28;20393;-63
2022/08/22 05:05:38;;;;;;;7.47;2.47;;;;;;;-144.43;100.00;67396.00;5094673;28;20028;-63
2022/08/22 05:09:08;;;;;;;9.90;2.40;;;;;;;-144.43;100.00;67396.00;5094650;28;20036;-64
2022/08/22 05:12:45;;;;;;;25.88;3.55;;;;;;;-144.43;100.00;67396.00;5088470;28;20517;-63
2022/08/22 05:16:17;;;;;;;22.98;3.75;;;;;;;-144.43;100.00;67396.00;5095052;28;20118;-62
2022/08/22 05:19:59;;;;;;;6.75;2.15;;;;;;;-144.43;100.00;67396.00;5092821;28;20431;-65
2022/08/22 05:23:30;;;;;;;6.55;2.33;;;;;;;-144.43;100.00;67396.00;5092626;28;20063;-62
2022/08/22 05:27:02;;;;;;;5.00;2.13;;;;;;;-144.43;100.00;67396.00;5094455;28;20502;-61
2022/08/22 05:30:32;;;;;;;8.50;2.22;;;;;;;-144.43;100.00;67396.00;5097010;28;20039;-62
2022/08/22 05:34:20;;;;;;;4.97;1.80;;;;;;;-144.43;100.00;67396.00;5094166;28;20536;-61
2022/08/22 05:38:06;;;;;;;8.65;1.85;;;;;;;-144.43;100.00;67396.00;5094396;28;20040;-62
2022/08/22 05:41:34;;;;;;;5.30;2.10;;;;;;;-144.43;100.00;67396.00;5093642;28;20359;-65
2022/08/22 05:45:01;;;;;;;8.55;2.00;;;;;;;-144.43;100.00;67396.00;5091919;28;20047;-62
2022/08/22 05:48:42;;;;;;;8.25;2.35;;;;;;;-144.43;100.00;67396.00;5093145;28;20040;-61
2022/08/22 05:52:28;;;;;;;8.48;2.65;;;;;;;-144.43;100.00;67396.00;5091276;28;20078;-63
2022/08/22 05:56:08;;;;;;;7.65;2.65;;;;;;;-144.43;100.00;67396.00;5091288;28;20032;-63
2022/08/22 05:59:43;;;;;;;9.07;2.63;;;;;;;-144.43;100.00;67396.00;5088485;28;20032;-66
2022/08/22 06:03:25;;;;;;;9.70;2.70;;;;;;;-144.43;100.00;67396.00;5091851;28;20028;-64
2022/08/22 06:07:03;;;;;;;10.55;2.60;;;;;;;-144.43;100.00;67396.00;5091564;28;20035;-62
2022/08/22 06:10:39;;;;;;;6.95;2.75;;;;;;;-144.43;100.00;67396.00;5090513;28;20066;-66
2022/08/22 06:14:15;;;;;;;8.70;2.40;;;;;;;-144.43;100.00;67396.00;5091373;28;20027;-62
2022/08/22 06:17:52;;;;;;;10.05;2.60;;;;;;;-144.43;100.00;67396.00;5093651;28;20044;-63
2022/08/22 06:21:19;;;;;;;;;;;;;;;-144.43;100.00;67396.00;5091955;28;20067;-61
2022/08/22 06:24:49;;;;;;;17.42;3.20;;;;;;;-144.43;100.00;67396.00;5093186;28;19916;-62
2022/08/22 06:28:19;;;;;;;7.55;2.78;;;;;;;-144.43;100.00;67396.00;5093379;28;20118;-66
2022/08/22 06:31:47;;;;;;;9.48;2.63;;;;;;;-144.43;100.00;67396.00;5091236;28;20501;-62
2022/08/22 06:39:33;;;;;;;7.07;2.15;;;;;;;-144.43;100.00;67396.00;5091509;28;20038;-62
2022/08/22 06:43:04;;;;;;;9.27;2.30;;;;;;;-144.43;100.00;67396.00;5091168;28;20035;-61
2022/08/22 06:46:32;;;;;;;8.68;2.25;;;;;;;-144.43;100.00;67396.00;5091367;28;20064;-65
2022/08/22 06:50:00;;;;;;;6.03;2.00;;;;;;;-144.43;100.00;67396.00;5090291;28;20131;-63
2022/08/22 06:53:34;;;;;;;6.78;2.40;;;;;;;-144.43;100.00;67396.00;5089467;28;20040;-62
2022/08/22 06:57:03;;;;;;;12.50;2.75;;;;;;;-144.43;100.00;67396.00;5091322;28;20082;-62
2022/08/22 07:00:31;;;;;;;10.75;2.65;;;;;;;-144.43;100.00;67396.00;5089959;28;20047;-64
2022/08/22 07:04:27;;;;;;;9.25;2.10;;;;;;;-144.43;100.00;67396.00;5092636;28;20097;-59
2022/08/22 07:07:54;;;;;;;8.25;2.40;;;;;;;-144.43;100.00;67396.00;5089149;28;20035;-64
2022/08/22 07:11:22;;;;;;;6.55;2.50;;;;;;;-144.43;100.00;67396.00;5089002;28;20422;-63
2022/08/22 07:15:18;;;;;;;7.68;2.80;;;;;;;-144.43;100.00;67396.00;5090530;28;20479;-66
2022/08/22 07:18:52;;;;;;;5.43;2.53;;;;;;;-144.43;100.00;67396.00;5090504;28;20036;-61
2022/08/22 07:22:31;;;;;;;6.47;2.65;;;;;;;-144.43;100.00;67396.00;5081783;28;20081;-66
2022/08/22 07:26:04;;;;;;;6.38;2.40;;;;;;;-144.43;100.00;67396.00;5080225;28;20073;-63
2022/08/22 07:29:54;;;;;;;10.60;2.97;;;;;;;-144.43;100.00;67396.00;5082559;28;20032;-64
2022/08/22 07:33:38;;;;;;;7.55;2.60;;;;;;;-144.43;100.00;67396.00;5088930;28;20050;-65
2022/08/22 07:37:17;;;;;;;7.25;2.15;;;;;;;-144.43;100.00;67396.00;5091422;28;20024;-61
2022/08/22 07:41:04;;;;;;;6.85;2.42;;;;;;;-144.43;100.00;67396.00;5091185;28;20033;-62
2022/08/22 07:44:55;;;;;;;5.90;2.17;;;;;;;-144.43;100.00;67396.00;5090560;28;20433;-63
2022/08/22 07:48:35;;;;;;;7.63;2.58;;;;;;;-144.43;100.00;67396.00;5088715;28;20067;-64
2022/08/22 07:52:12;;;;;;;6.65;2.40;;;;;;;-144.43;100.00;67396.00;5089775;28;20044;-64
2022/08/22 07:55:47;;;;;;;5.32;2.28;;;;;;;-144.43;100.00;67396.00;5091359;28;20516;-64
2022/08/22 07:59:16;;;;;;;5.85;2.47;;;;;;;-144.43;100.00;67396.00;5091435;28;20036;-62
2022/08/22 08:02:55;;;;;;;5.45;2.47;;;;;;;-144.43;100.00;67396.00;5089702;28;20510;-64
2022/08/22 08:06:22;;;;;;;7.30;2.47;;;;;;;-144.43;100.00;67396.00;5088234;28;20055;-63
2022/08/22 08:10:10;;;;;;;7.10;2.85;;;;;;;-144.43;100.00;67396.00;5091337;28;20032;-64
2022/08/22 08:13:44;;;;;;;6.72;2.50;;;;;;;-144.43;100.00;67396.00;5091160;28;20035;-62
2022/08/22 08:17:25;;;;;;;5.55;2.33;;;;;;;-144.43;100.00;67396.00;5090788;28;20060;-63
2022/08/22 08:20:53;;;;;;;6.00;1.92;;;;;;;-144.43;100.00;67396.00;5091734;28;20054;-62
2022/08/22 08:24:22;;;;;;;6.28;2.38;;;;;;;-144.43;100.00;67396.00;5083318;28;20036;-62
2022/08/22 08:31:53;;;;;;;6.32;3.17;;;;;;;-144.43;100.00;67396.00;5078562;28;20051;-61
2022/08/22 08:35:23;;;;;;;11.20;4.13;;;;;;;-144.43;100.00;67396.00;5088967;28;20033;-61
2022/08/22 08:39:16;;;;;;;8.55;2.45;;;;;;;-144.43;100.00;67396.00;5087500;28;20063;-62
2022/08/22 08:43:33;;;;;;;46.33;5.63;;;;;;;-144.43;100.00;67396.00;5086556;28;20544;-62
2022/08/22 08:47:10;;;;;;;195.90;15.23;;;;;;;-144.43;100.00;67396.00;5088805;28;20488;-61
2022/08/22 08:50:48;;;;;;;326.63;23.30;;;;;;;-144.43;100.00;67396.00;5078115;28;20035;-62
2022/08/22 08:54:19;;;;;;;350.83;25.30;;;;;;;-144.43;100.00;67396.00;5091702;28;20043;-63
2022/08/22 08:58:06;;;;;;;609.90;52.33;;;;;;;-144.43;100.00;67396.00;5091608;28;20028;-63
2022/08/22 09:01:34;;;;;;;;;;;;;;;-144.43;100.00;67396.00;5077150;28;20543;-62
2022/08/22 09:05:38;;;;;;;422.65;38.20;;;;;;;-144.43;100.00;67396.00;5091236;28;19920;-63
2022/08/22 09:09:31;;;;;;;187.75;20.60;;;;;;;-144.43;100.00;67396.00;5080554;28;20137;-60
2022/08/22 09:13:25;;;;;;;81.57;11.82;;;;;;;-144.43;100.00;67396.00;5095421;28;20070;-62
2022/08/22 09:17:27;;;;;;;87.35;10.70;;;;;;;-144.43;100.00;67396.00;5095381;28;20067;-61
2022/08/22 09:21:13;;;;;;;71.75;10.35;;;;;;;-144.43;100.00;67396.00;5095232;28;20068;-61
2022/08/22 09:24:41;;;;;;;73.82;10.80;;;;;;;-144.43;100.00;67396.00;5095321;28;20050;-61
2022/08/22 09:28:21;;;;;;;49.25;8.98;;;;;;;-144.43;100.00;67396.00;5078065;28;20494;-62
2022/08/22 09:31:52;;;;;;;58.50;9.27;;;;;;;-144.43;100.00;67396.00;5090425;28;20036;-59
2022/08/22 09:35:17;;;;;;;44.42;8.25;;;;;;;-144.43;100.00;67396.00;5086205;28;20039;-62
2022/08/22 09:39:04;;;;;;;28.60;5.43;;;;;;;-144.43;100.00;67396.00;5080513;28;20486;-62
2022/08/22 09:43:00;;;;;;;25.50;5.18;;;;;;;-144.43;100.00;67396.00;5079311;28;20090;-62
2022/08/22 09:46:35;;;;;;;17.80;4.18;;;;;;;-144.43;100.00;67396.00;5078654;28;20475;-62
2022/08/22 09:50:18;;;;;;;18.70;4.30;;;;;;;-144.43;100.00;67396.00;5093802;28;20047;-60
2022/08/22 09:54:13;;;;;;;15.05;3.25;;;;;;;-144.43;100.00;67396.00;5094726;28;20043;-61
2022/08/22 09:57:54;;;;;;;13.50;3.42;;;;;;;-144.43;100.00;67396.00;5099491;28;20390;-62
2022/08/22 10:01:49;;;;;;;13.07;3.65;;;;;;;-144.43;100.00;67396.00;5082640;28;20037;-60
2022/08/22 10:05:50;;;;;;;12.18;2.70;;;;;;;-144.43;100.00;67396.00;5094318;28;20157;-62
2022/08/22 10:09:27;;;;;;;10.07;3.47;;;;;;;-144.43;100.00;67396.00;5083633;28;20180;-59
2022/08/22 10:13:02;;;;;;;;;;;;;;;-144.43;100.00;67396.00;5086570;28;20037;-62
2022/08/22 10:16:39;;;;;;;13.10;3.80;;;;;;;-144.43;100.00;67396.00;5078682;28;20370;-63
2022/08/22 10:20:05;;;;;;;;;;;;;;;-144.43;100.00;67396.00;5091851;28;20120;-63
2022/08/22 10:24:02;;;;;;;13.88;4.57;;;;;;;-144.43;100.00;67396.00;5087292;28;19930;-64
2022/08/22 10:27:42;;;;;;;5.63;1.80;;;;;;;-144.43;100.00;67396.00;5070675;28;20067;-59
2022/08/22 10:31:14;;;;;;;3.75;1.60;;;;;;;-144.43;100.00;67396.00;5083811;28;20028;-61
2022/08/22 10:35:13;;;;;;;17.88;1.88;;;;;;;-144.43;100.00;67396.00;5093877;28;20036;-62
2022/08/22 10:38:49;;;;;;;6.15;1.40;;;;;;;-144.43;100.00;67396.00;5093914;28;20028;-63
2022/08/22 10:42:26;;;;;;;6.50;2.00;;;;;;;-144.43;100.00;67396.00;5076849;28;20036;-62
2022/08/22 10:46:24;;;;;;;10.77;3.38;;;;;;;-144.43;100.00;67396.00;5077299;28;20036;-63
2022/08/22 10:50:18;;;;;;;12.75;4.85;;;;;;;-144.43;100.00;67396.00;5056797;28;20035;-62
2022/08/22 10:54:06;;;;;;;23.85;5.10;;;;;;;-144.43;100.00;67396.00;5088471;28;20473;-62
2022/08/22 10:57:59;;;;;;;19.52;5.22;;;;;;;-144.43;100.00;67396.00;5086727;28;20469;-63
2022/08/22 11:01:27;;;;;;;20.95;4.60;;;;;;;-144.43;100.00;67396.00;5080503;28;20390;-61
2022/08/22 11:05:15;;;;;;;14.07;3.63;;;;;;;-144.43;100.00;67396.00;5093286;28;20398;-60
2022/08/22 11:09:12;;;;;;;19.42;3.85;;;;;;;-144.43;100.00;67396.00;5093340;28;20077;-60
2022/08/22 11:12:49;;;;;;;16.30;3.38;;;;;;;-144.43;100.00;67396.00;5078873;28;20035;-61
2022/08/22 11:16:23;;;;;;;12.75;3.05;;;;;;;-144.43;100.00;67396.00;5090138;28;20052;-59
2022/08/22 11:20:30;;;;;;;17.83;6.85;;;;;;;-144.43;100.00;67396.00;5088692;28;20046;-61
2022/08/22 11:24:19;;;;;;;15.48;10.88;;;;;;;-144.43;100.00;67396.00;5089589;28;20445;-60
2022/08/22 11:28:07;;;;;;;58.05;7.32;;;;;;;-144.43;100.00;67396.00;5052991;28;20498;-60
2022/08/22 11:32:05;;;;;;;94.65;10.57;;;;;;;-144.43;100.00;67396.00;5092459;28;20085;-61
2022/08/22 11:35:45;;;;;;;95.93;12.40;;;;;;;-144.43;100.00;67396.00;5086057;28;20036;-61
2022/08/22 11:39:27;;;;;;;124.95;20.40;;;;;;;-144.43;100.00;67396.00;5083188;28;20126;-61
2022/08/22 11:43:03;;;;;;;108.43;15.15;;;;;;;-144.43;100.00;67396.00;5080647;28;20032;-60
2022/08/22 11:46:35;;;;;;;107.82;16.27;;;;;;;-144.43;100.00;67396.00;5077084;28;20032;-61
2022/08/22 11:50:30;;;;;;;93.43;13.43;;;;;;;-144.43;100.00;67396.00;5091636;28;20093;-61
2022/08/22 11:54:15;;;;;;;127.40;13.18;;;;;;;-144.43;100.00;67396.00;5089087;28;20036;-61
2022/08/22 11:58:16;;;;;;;120.15;13.05;;;;;;;-144.43;100.00;67396.00;5075693;28;20040;-61
2022/08/22 12:01:58;;;;;;;103.22;12.77;;;;;;;-144.43;100.00;67396.00;5049351;28;20502;-61
2022/08/22 12:05:42;;;;;;;97.85;14.02;;;;;;;-144.43;100.00;67396.00;5084330;28;20044;-62
2022/08/22 12:09:27;;;;;;;94.80;12.35;;;;;;;-144.43;100.00;67396.00;5082580;28;20111;-62
2022/08/22 12:13:25;;;;;;;105.68;11.13;;;;;;;-144.43;100.00;67396.00;5080288;28;20042;-61
2022/08/22 12:16:59;;;;;;;74.45;8.82;;;;;;;-144.43;100.00;67396.00;5079916;28;20085;-61
2022/08/22 12:20:42;;;;;;;58.50;7.20;;;;;;;-144.43;100.00;67396.00;5076207;28;20024;-62
2022/08/22 12:24:10;;;;;;;40.80;5.85;;;;;;;-144.43;100.00;67396.00;5090211;28;20048;-60
2022/08/22 12:27:48;;;;;;;47.05;9.75;;;;;;;-144.43;100.00;67396.00;5094966;28;20035;-60
2022/08/22 12:31:25;;;;;;;60.45;19.23;;;;;;;-144.43;100.00;67396.00;5091979;28;20098;-62
2022/08/22 12:35:35;;;;;;;74.70;18.98;;;;;;;-144.43;100.00;67396.00;5085048;28;20088;-61
2022/08/22 12:39:18;;;;;;;71.95;11.02;;;;;;;-144.43;100.00;67396.00;5042784;28;20075;-60
2022/08/22 12:42:52;;;;;;;92.43;10.25;;;;;;;-144.43;100.00;67396.00;5092390;28;20028;-61
2022/08/22 12:46:36;;;;;;;58.10;8.90;;;;;;;-144.43;100.00;67396.00;5095133;28;20036;-61
2022/08/22 12:50:24;;;;;;;69.90;9.35;;;;;;;-144.43;100.00;67396.00;5126326;27;20032;-59
2022/08/22 12:54:04;;;;;;;64.35;8.95;;;;;;;-144.43;100.00;67396.00;5094069;28;20036;-62
2022/08/22 12:57:32;;;;;;;74.28;8.98;;;;;;;-144.43;100.00;67396.00;5094122;28;20483;-63
2022/08/22 13:01:05;;;;;;;54.40;7.35;;;;;;;-144.43;100.00;67396.00;5095319;28;20055;-62
2022/08/22 13:04:34;;;;;;;59.30;7.75;;;;;;;-144.43;100.00;67396.00;5094740;28;20043;-62
2022/08/22 13:08:01;;;;;;;52.38;7.25;;;;;;;-144.43;100.00;67396.00;5094540;28;20073;-63
2022/08/22 13:11:38;;;;;;;47.47;6.97;;;;;;;-144.43;100.00;67396.00;5095130;28;20040;-62
2022/08/22 13:15:25;;;;;;;54.75;7.78;;;;;;;-144.43;100.00;67396.00;5092395;28;20507;-61
2022/08/22 13:18:57;;;;;;;53.08;7.18;;;;;;;-144.43;100.00;67396.00;5042377;28;20165;-62
2022/08/22 13:22:31;;;;;;;56.08;7.47;;;;;;;-144.43;100.00;67396.00;5078994;28;20039;-62
2022/08/22 13:26:33;;;;;;;55.05;7.68;;;;;;;-144.43;100.00;67396.00;5096254;28;20036;-60
2022/08/22 13:30:02;;;;;;;64.22;8.00;;;;;;;-144.43;100.00;67396.00;5079437;28;20117;-60
2022/08/22 13:33:36;;;;;;;81.38;9.23;;;;;;;-144.43;100.00;67396.00;5082082;28;20083;-60
2022/08/22 13:37:06;;;;;;;70.32;8.30;;;;;;;-144.43;100.00;67396.00;5093345;28;20036;-61
2022/08/22 13:40:37;;;;;;;66.10;8.45;;;;;;;-144.43;100.00;67396.00;5091956;28;20040;-60
2022/08/22 13:44:07;;;;;;;68.80;7.68;;;;;;;-144.43;100.00;67396.00;5074801;28;20043;-60
2022/08/22 13:47:44;;;;;;;35.25;5.60;;;;;;;-144.43;100.00;67396.00;5079082;28;20066;-62
2022/08/22 13:51:31;;;;;;;39.03;4.82;;;;;;;-144.43;100.00;67396.00;5101990;28;20030;-62
2022/08/22 13:55:05;;;;;;;;;;;;;;;-144.43;100.00;67396.00;5038693;28;20044;-60
2022/08/22 13:58:40;;;;;;;32.55;4.80;;;;;;;-144.43;100.00;67396.00;5094479;28;20015;-60
2022/08/22 14:02:23;;;;;;;19.90;4.10;;;;;;;-144.43;100.00;67396.00;5077430;28;20086;-61
2022/08/22 14:05:55;;;;;;;32.83;4.10;;;;;;;-144.43;100.00;67396.00;5088344;28;20047;-62
2022/08/22 14:09:41;;;;;;;20.75;3.92;;;;;;;-144.43;100.00;67396.00;5082414;28;20454;-59
2022/08/22 14:13:27;;;;;;;29.20;4.30;;;;;;;-144.43;100.00;67396.00;5094079;28;20032;-60
2022/08/22 14:17:03;;;;;;;27.40;4.15;;;;;;;-144.43;100.00;67396.00;5094303;28;20494;-60
2022/08/22 14:20:30;;;;;;;24.85;4.15;;;;;;;-144.43;100.00;67396.00;5094169;28;20036;-60
2022/08/22 14:24:01;;;;;;;;;;;;;;;-144.43;100.00;67396.00;5077671;28;20029;-60
2022/08/22 14:27:31;;;;;;;20.60;3.60;;;;;;;-144.43;100.00;67396.00;5096519;28;19915;-60
2022/08/22 14:31:07;;;;;;;18.10;3.67;;;;;;;-144.43;100.00;67396.00;5093225;28;20391;-60
2022/08/22 14:34:38;;;;;;;28.77;4.40;;;;;;;-144.43;100.00;67396.00;5078938;28;20036;-61
2022/08/22 14:38:21;;;;;;;17.48;3.40;;;;;;;-144.43;100.00;67396.00;5093272;28;20148;-60
2022/08/22 14:42:23;;;;;;;28.65;4.20;;;;;;;-144.43;100.00;67396.00;5091854;28;20486;-61
2022/08/22 14:46:06;;;;;;;16.10;3.70;;;;;;;-144.43;100.00;67396.00;5076776;28;20044;-60
2022/08/22 14:49:47;;;;;;;18.67;3.40;;;;;;;-144.43;100.00;67396.00;5093398;28;20055;-61
2022/08/22 14:53:34;;;;;;;20.55;3.97;;;;;;;-144.43;100.00;67396.00;5091514;28;20506;-60
2022/08/22 14:57:12;;;;;;;16.00;3.22;;;;;;;-144.43;100.00;67396.00;5082285;28;20051;-59
2022/08/22 15:00:48;;;;;;;16.45;3.28;;;;;;;-144.43;100.00;67396.00;5087260;28;20394;-60
2022/08/22 15:04:35;;;;;;;15.07;3.50;;;;;;;-144.43;100.00;67396.00;5082619;28;20040;-60
2022/08/22 15:08:01;;;;;;;18.40;3.88;;;;;;;-144.43;100.00;67396.00;5078826;28;20274;-60
2022/08/22 15:11:31;;;;;;;19.25;4.20;;;;;;;-144.43;100.00;67396.00;5077082;28;20043;-61
2022/08/22 15:15:27;;;;;;;15.48;4.50;;;;;;;-144.43;100.00;67396.00;5082998;28;20082;-60
2022/08/22 15:18:52;;;;;;;16.25;4.05;;;;;;;-144.43;100.00;67396.00;5086121;28;20090;-61
2022/08/22 15:22:28;;;;;;;14.88;3.55;;;;;;;-144.43;100.00;67396.00;5090624;28;20024;-61
2022/08/22 15:26:07;;;;;;;16.27;3.72;;;;;;;-144.43;100.00;67396.00;5088191;28;20118;-59
2022/08/22 15:29:43;;;;;;;13.75;3.55;;;;;;;-144.43;100.00;67396.00;5085970;28;20115;-60
2022/08/22 15:33:10;;;;;;;19.10;5.30;;;;;;;-144.43;100.00;67396.00;5081843;28;20037;-59
2022/08/22 15:36:56;;;;;;;21.02;6.00;;;;;;;-144.43;100.00;67396.00;5096469;28;20043;-60
2022/08/22 15:40:37;;;;;;;17.83;5.15;;;;;;;-144.43;100.00;67396.00;5075953;28;20394;-60
2022/08/22 15:44:20;;;;;;;19.58;5.13;;;;;;;-144.43;100.00;67396.00;5089473;28;20033;-58
2022/08/22 15:47:52;;;;;;;17.45;4.85;;;;;;;-144.43;100.00;67396.00;5086135;28;20078;-60
2022/08/22 15:51:35;;;;;;;17.00;4.95;;;;;;;-144.43;100.00;67396.00;5090616;28;20032;-61
2022/08/22 15:55:21;;;;;;;25.30;6.20;;;;;;;-144.43;100.00;67396.00;5088489;28;20028;-61
2022/08/22 15:59:15;;;;;;;13.02;5.00;;;;;;;-144.43;100.00;67396.00;5090039;28;20020;-59
2022/08/22 16:02:59;;;;;;;24.05;6.68;;;;;;;-144.43;100.00;67396.00;5092722;28;20047;-60
2022/08/22 16:06:45;;;;;;;23.10;5.80;;;;;;;-144.43;100.00;67396.00;5092417;28;20071;-59
2022/08/22 16:10:54;;;;;;;26.63;6.50;;;;;;;-144.43;100.00;67396.00;5092488;28;20042;-60
2022/08/22 16:14:34;;;;;;;17.50;6.30;;;;;;;-144.43;100.00;67396.00;5046125;28;20386;-59
2022/08/22 16:17:59;;;;;;;27.25;5.50;;;;;;;-144.43;100.00;67396.00;5096828;28;20055;-59
2022/08/22 16:21:24;;;;;;;30.50;6.45;;;;;;;-144.43;100.00;67396.00;5097111;28;20035;-59
2022/08/22 16:24:58;;;;;;;23.75;5.50;;;;;;;-144.43;100.00;67396.00;5096983;28;20024;-59
2022/08/22 16:28:47;;;;;;;22.65;4.70;;;;;;;-144.43;100.00;67396.00;5096845;28;20032;-58
2022/08/22 16:32:24;;;;;;;28.40;5.53;;;;;;;-144.43;100.00;67396.00;5096937;28;20040;-58
2022/08/22 16:36:08;;;;;;;27.02;6.15;;;;;;;-144.43;100.00;67396.00;5096571;28;20421;-61
2022/08/22 16:39:40;;;;;;;29.40;5.57;;;;;;;-144.43;100.00;67396.00;5096517;28;20170;-61
2022/08/22 16:43:16;;;;;;;30.02;5.30;;;;;;;-144.43;100.00;67396.00;5096694;28;20032;-61
2022/08/22 16:46:43;;;;;;;37.35;6.50;;;;;;;-144.43;100.00;67396.00;5096671;28;20390;-61